sensor_id;sensor_type;location;lat;lon;timestamp;P1;durP1;ratioP1;P2;durP2;ratioP2
59052;SDS011;44843;44.728;10.396;2022-10-22T00:01:47;149.07;;;52.22;;
59052;SDS011;44843;44.728;10.396;2022-10-22T00:04:13;159.07;;;55.13;;
59052;SDS011;44843;44.728;10.396;2022-10-22T00:06:38;141.27;;;52.15;;
59052;SDS011;44843;44.728;10.396;2022-10-22T00:09:05;146.38;;;52.97;;
59052;SDS011;44843;44.728;10.396;2022-10-22T00:11:30;145.82;;;52.85;;
59052;SDS011;44843;44.728;10.396;2022-10-22T00:13:56;146.65;;;53.08;;
59052;SDS011;44843;44.728;10.396;2022-10-22T00:16:22;159.02;;;52.03;;
59052;SDS011;44843;44.728;10.396;2022-10-22T00:18:47;147.30;;;50.05;;
59052;SDS011;44843;44.728;10.396;2022-10-22T00:21:12;135.98;;;48.75;;
59052;SDS011;44843;44.728;10.396;2022-10-22T00:23:41;143.02;;;51.28;;
59052;SDS011;44843;44.728;10.396;2022-10-22T00:26:07;138.75;;;49.47;;
59052;SDS011;44843;44.728;10.396;2022-10-22T00:28:33;146.77;;;52.33;;
59052;SDS011;44843;44.728;10.396;2022-10-22T00:30:59;141.88;;;50.13;;
59052;SDS011;44843;44.728;10.396;2022-10-22T00:33:25;142.93;;;52.72;;
59052;SDS011;44843;44.728;10.396;2022-10-22T00:35:52;153.02;;;54.00;;
59052;SDS011;44843;44.728;10.396;2022-10-22T00:38:17;148.18;;;52.95;;
59052;SDS011;44843;44.728;10.396;2022-10-22T00:40:43;150.18;;;51.40;;
59052;SDS011;44843;44.728;10.396;2022-10-22T00:43:15;140.55;;;52.35;;
59052;SDS011;44843;44.728;10.396;2022-10-22T00:45:43;154.98;;;53.50;;
59052;SDS011;44843;44.728;10.396;2022-10-22T00:53:05;147.98;;;52.17;;
59052;SDS011;44843;44.728;10.396;2022-10-22T00:55:35;142.80;;;50.35;;
59052;SDS011;44843;44.728;10.396;2022-10-22T00:58:01;142.43;;;52.45;;
59052;SDS011;44843;44.728;10.396;2022-10-22T01:00:28;142.10;;;50.15;;
59052;SDS011;44843;44.728;10.396;2022-10-22T01:02:53;147.30;;;51.85;;
59052;SDS011;44843;44.728;10.396;2022-10-22T01:05:21;138.40;;;50.35;;
59052;SDS011;44843;44.728;10.396;2022-10-22T01:07:47;127.18;;;49.28;;
59052;SDS011;44843;44.728;10.396;2022-10-22T01:15:52;125.47;;;45.70;;
59052;SDS011;44843;44.728;10.396;2022-10-22T01:21:14;127.93;;;48.47;;
59052;SDS011;44843;44.728;10.396;2022-10-22T01:29:11;107.10;;;44.57;;
59052;SDS011;44843;44.728;10.396;2022-10-22T01:31:44;113.90;;;44.50;;
59052;SDS011;44843;44.728;10.396;2022-10-22T01:34:13;117.73;;;44.73;;
59052;SDS011;44843;44.728;10.396;2022-10-22T01:39:08;109.05;;;44.95;;
59052;SDS011;44843;44.728;10.396;2022-10-22T01:41:35;113.82;;;44.63;;
59052;SDS011;44843;44.728;10.396;2022-10-22T01:44:03;111.18;;;45.15;;
59052;SDS011;44843;44.728;10.396;2022-10-22T01:46:29;109.05;;;45.45;;
59052;SDS011;44843;44.728;10.396;2022-10-22T01:54:58;92.53;;;39.75;;
59052;SDS011;44843;44.728;10.396;2022-10-22T02:00:00;91.82;;;39.50;;
59052;SDS011;44843;44.728;10.396;2022-10-22T02:05:37;93.55;;;38.90;;
59052;SDS011;44843;44.728;10.396;2022-10-22T02:08:09;96.15;;;36.78;;
59052;SDS011;44843;44.728;10.396;2022-10-22T02:10:39;84.38;;;36.50;;
59052;SDS011;44843;44.728;10.396;2022-10-22T02:13:09;87.68;;;36.88;;
59052;SDS011;44843;44.728;10.396;2022-10-22T02:15:39;90.82;;;37.47;;
59052;SDS011;44843;44.728;10.396;2022-10-22T02:18:09;83.68;;;37.08;;
59052;SDS011;44843;44.728;10.396;2022-10-22T02:20:36;82.00;;;37.17;;
59052;SDS011;44843;44.728;10.396;2022-10-22T02:23:05;91.93;;;38.38;;
59052;SDS011;44843;44.728;10.396;2022-10-22T02:25:31;79.53;;;34.97;;
59052;SDS011;44843;44.728;10.396;2022-10-22T02:30:41;74.00;;;32.85;;
59052;SDS011;44843;44.728;10.396;2022-10-22T02:33:12;77.55;;;35.15;;
59052;SDS011;44843;44.728;10.396;2022-10-22T02:35:45;70.95;;;31.92;;
59052;SDS011;44843;44.728;10.396;2022-10-22T02:38:11;67.35;;;33.10;;
59052;SDS011;44843;44.728;10.396;2022-10-22T02:40:38;68.13;;;31.95;;
59052;SDS011;44843;44.728;10.396;2022-10-22T02:43:04;68.03;;;31.90;;
59052;SDS011;44843;44.728;10.396;2022-10-22T02:45:30;59.50;;;30.88;;
59052;SDS011;44843;44.728;10.396;2022-10-22T02:47:56;68.25;;;32.55;;
59052;SDS011;44843;44.728;10.396;2022-10-22T02:50:21;58.42;;;29.52;;
59052;SDS011;44843;44.728;10.396;2022-10-22T02:52:47;66.20;;;30.20;;
59052;SDS011;44843;44.728;10.396;2022-10-22T02:55:12;67.03;;;30.75;;
59052;SDS011;44843;44.728;10.396;2022-10-22T02:57:37;64.10;;;30.30;;
59052;SDS011;44843;44.728;10.396;2022-10-22T03:00:04;59.92;;;29.60;;
59052;SDS011;44843;44.728;10.396;2022-10-22T03:02:31;62.10;;;30.45;;
59052;SDS011;44843;44.728;10.396;2022-10-22T03:04:56;52.55;;;29.15;;
59052;SDS011;44843;44.728;10.396;2022-10-22T03:07:22;57.33;;;28.50;;
59052;SDS011;44843;44.728;10.396;2022-10-22T03:09:47;60.30;;;29.58;;
59052;SDS011;44843;44.728;10.396;2022-10-22T03:12:12;56.90;;;28.67;;
59052;SDS011;44843;44.728;10.396;2022-10-22T03:14:38;60.28;;;28.75;;
59052;SDS011;44843;44.728;10.396;2022-10-22T03:17:03;57.72;;;28.48;;
59052;SDS011;44843;44.728;10.396;2022-10-22T03:19:29;55.20;;;27.77;;
59052;SDS011;44843;44.728;10.396;2022-10-22T03:22:36;52.78;;;27.40;;
59052;SDS011;44843;44.728;10.396;2022-10-22T03:24:48;55.30;;;27.88;;
59052;SDS011;44843;44.728;10.396;2022-10-22T03:27:17;53.90;;;27.42;;
59052;SDS011;44843;44.728;10.396;2022-10-22T03:29:45;57.42;;;28.95;;
59052;SDS011;44843;44.728;10.396;2022-10-22T03:32:11;51.13;;;26.95;;
59052;SDS011;44843;44.728;10.396;2022-10-22T03:34:37;64.75;;;29.52;;
59052;SDS011;44843;44.728;10.396;2022-10-22T03:37:02;51.45;;;26.92;;
59052;SDS011;44843;44.728;10.396;2022-10-22T03:39:28;52.50;;;29.17;;
59052;SDS011;44843;44.728;10.396;2022-10-22T03:41:57;56.20;;;26.38;;
59052;SDS011;44843;44.728;10.396;2022-10-22T03:44:23;45.17;;;25.75;;
59052;SDS011;44843;44.728;10.396;2022-10-22T03:46:48;51.80;;;26.48;;
59052;SDS011;44843;44.728;10.396;2022-10-22T03:49:15;58.10;;;26.35;;
59052;SDS011;44843;44.728;10.396;2022-10-22T03:51:40;50.97;;;26.50;;
59052;SDS011;44843;44.728;10.396;2022-10-22T03:54:05;48.03;;;25.40;;
59052;SDS011;44843;44.728;10.396;2022-10-22T03:56:31;51.00;;;27.45;;
59052;SDS011;44843;44.728;10.396;2022-10-22T03:58:57;56.10;;;27.85;;
59052;SDS011;44843;44.728;10.396;2022-10-22T04:01:24;48.95;;;25.48;;
59052;SDS011;44843;44.728;10.396;2022-10-22T04:03:50;56.58;;;26.90;;
59052;SDS011;44843;44.728;10.396;2022-10-22T04:06:15;57.60;;;26.67;;
59052;SDS011;44843;44.728;10.396;2022-10-22T04:08:42;54.03;;;26.70;;
59052;SDS011;44843;44.728;10.396;2022-10-22T04:11:09;57.03;;;27.48;;
59052;SDS011;44843;44.728;10.396;2022-10-22T04:13:35;58.47;;;27.05;;
59052;SDS011;44843;44.728;10.396;2022-10-22T04:16:19;51.00;;;26.25;;
59052;SDS011;44843;44.728;10.396;2022-10-22T04:18:47;46.25;;;24.85;;
59052;SDS011;44843;44.728;10.396;2022-10-22T04:21:14;43.85;;;24.13;;
59052;SDS011;44843;44.728;10.396;2022-10-22T04:23:45;51.97;;;25.83;;
59052;SDS011;44843;44.728;10.396;2022-10-22T04:26:12;46.95;;;24.42;;
59052;SDS011;44843;44.728;10.396;2022-10-22T04:28:38;50.33;;;25.48;;
59052;SDS011;44843;44.728;10.396;2022-10-22T04:31:07;44.92;;;24.70;;
59052;SDS011;44843;44.728;10.396;2022-10-22T04:33:42;47.95;;;25.13;;
59052;SDS011;44843;44.728;10.396;2022-10-22T04:36:08;47.53;;;24.02;;
59052;SDS011;44843;44.728;10.396;2022-10-22T04:38:39;43.75;;;24.05;;
59052;SDS011;44843;44.728;10.396;2022-10-22T04:41:12;45.17;;;24.30;;
59052;SDS011;44843;44.728;10.396;2022-10-22T04:43:39;50.63;;;24.92;;
59052;SDS011;44843;44.728;10.396;2022-10-22T04:46:05;47.40;;;23.48;;
59052;SDS011;44843;44.728;10.396;2022-10-22T04:48:33;54.95;;;24.33;;
59052;SDS011;44843;44.728;10.396;2022-10-22T04:50:59;45.28;;;24.10;;
59052;SDS011;44843;44.728;10.396;2022-10-22T04:53:25;45.55;;;23.38;;
59052;SDS011;44843;44.728;10.396;2022-10-22T04:55:51;42.10;;;22.55;;
59052;SDS011;44843;44.728;10.396;2022-10-22T04:58:16;40.22;;;22.67;;
59052;SDS011;44843;44.728;10.396;2022-10-22T05:00:41;47.25;;;24.63;;
59052;SDS011;44843;44.728;10.396;2022-10-22T05:03:07;47.20;;;23.52;;
59052;SDS011;44843;44.728;10.396;2022-10-22T05:05:32;50.70;;;24.08;;
59052;SDS011;44843;44.728;10.396;2022-10-22T05:07:58;42.38;;;21.98;;
59052;SDS011;44843;44.728;10.396;2022-10-22T05:10:23;53.30;;;26.30;;
59052;SDS011;44843;44.728;10.396;2022-10-22T05:12:48;44.25;;;22.33;;
59052;SDS011;44843;44.728;10.396;2022-10-22T05:15:15;46.28;;;23.63;;
59052;SDS011;44843;44.728;10.396;2022-10-22T05:17:40;48.13;;;21.38;;
59052;SDS011;44843;44.728;10.396;2022-10-22T05:20:06;35.97;;;20.23;;
59052;SDS011;44843;44.728;10.396;2022-10-22T05:22:32;40.45;;;21.23;;
59052;SDS011;44843;44.728;10.396;2022-10-22T05:24:58;39.40;;;20.83;;
59052;SDS011;44843;44.728;10.396;2022-10-22T05:27:24;41.10;;;20.58;;
59052;SDS011;44843;44.728;10.396;2022-10-22T05:29:50;39.67;;;20.90;;
59052;SDS011;44843;44.728;10.396;2022-10-22T05:32:15;38.47;;;20.73;;
59052;SDS011;44843;44.728;10.396;2022-10-22T05:34:41;40.08;;;21.00;;
59052;SDS011;44843;44.728;10.396;2022-10-22T05:37:06;35.88;;;20.85;;
59052;SDS011;44843;44.728;10.396;2022-10-22T05:39:31;36.10;;;20.25;;
59052;SDS011;44843;44.728;10.396;2022-10-22T05:42:00;33.60;;;20.33;;
59052;SDS011;44843;44.728;10.396;2022-10-22T05:44:29;35.90;;;21.55;;
59052;SDS011;44843;44.728;10.396;2022-10-22T05:46:54;41.53;;;20.15;;
59052;SDS011;44843;44.728;10.396;2022-10-22T05:49:20;37.90;;;19.70;;
59052;SDS011;44843;44.728;10.396;2022-10-22T05:51:45;41.75;;;20.15;;
59052;SDS011;44843;44.728;10.396;2022-10-22T05:54:14;36.25;;;20.13;;
59052;SDS011;44843;44.728;10.396;2022-10-22T05:56:44;38.30;;;20.00;;
59052;SDS011;44843;44.728;10.396;2022-10-22T05:59:10;40.47;;;21.23;;
59052;SDS011;44843;44.728;10.396;2022-10-22T06:01:35;38.80;;;20.75;;
59052;SDS011;44843;44.728;10.396;2022-10-22T06:04:03;43.58;;;21.33;;
59052;SDS011;44843;44.728;10.396;2022-10-22T06:06:35;38.83;;;20.75;;
59052;SDS011;44843;44.728;10.396;2022-10-22T06:09:15;41.33;;;21.23;;
59052;SDS011;44843;44.728;10.396;2022-10-22T06:11:46;49.80;;;22.60;;
59052;SDS011;44843;44.728;10.396;2022-10-22T06:14:12;35.90;;;20.17;;
59052;SDS011;44843;44.728;10.396;2022-10-22T06:16:39;31.77;;;18.90;;
59052;SDS011;44843;44.728;10.396;2022-10-22T06:19:04;32.10;;;18.60;;
59052;SDS011;44843;44.728;10.396;2022-10-22T06:21:30;34.25;;;18.98;;
59052;SDS011;44843;44.728;10.396;2022-10-22T06:23:57;35.60;;;19.27;;
59052;SDS011;44843;44.728;10.396;2022-10-22T06:26:24;34.20;;;19.10;;
59052;SDS011;44843;44.728;10.396;2022-10-22T06:28:50;30.58;;;18.35;;
59052;SDS011;44843;44.728;10.396;2022-10-22T06:31:16;30.67;;;18.00;;
59052;SDS011;44843;44.728;10.396;2022-10-22T06:33:41;28.13;;;17.15;;
59052;SDS011;44843;44.728;10.396;2022-10-22T06:36:10;36.90;;;18.92;;
59052;SDS011;44843;44.728;10.396;2022-10-22T06:38:38;31.25;;;18.27;;
59052;SDS011;44843;44.728;10.396;2022-10-22T06:41:06;30.17;;;17.75;;
59052;SDS011;44843;44.728;10.396;2022-10-22T06:43:39;30.88;;;18.05;;
59052;SDS011;44843;44.728;10.396;2022-10-22T06:46:05;29.42;;;17.10;;
59052;SDS011;44843;44.728;10.396;2022-10-22T06:48:34;34.47;;;18.08;;
59052;SDS011;44843;44.728;10.396;2022-10-22T06:51:02;36.10;;;18.13;;
59052;SDS011;44843;44.728;10.396;2022-10-22T06:53:37;31.85;;;17.77;;
59052;SDS011;44843;44.728;10.396;2022-10-22T06:56:08;36.83;;;18.90;;
59052;SDS011;44843;44.728;10.396;2022-10-22T06:58:35;31.15;;;17.88;;
59052;SDS011;44843;44.728;10.396;2022-10-22T07:01:05;27.35;;;17.05;;
59052;SDS011;44843;44.728;10.396;2022-10-22T07:03:35;27.27;;;17.00;;
59052;SDS011;44843;44.728;10.396;2022-10-22T07:06:00;35.43;;;18.07;;
59052;SDS011;44843;44.728;10.396;2022-10-22T07:08:27;33.95;;;17.13;;
59052;SDS011;44843;44.728;10.396;2022-10-22T07:10:54;32.45;;;18.08;;
59052;SDS011;44843;44.728;10.396;2022-10-22T07:13:19;32.72;;;18.08;;
59052;SDS011;44843;44.728;10.396;2022-10-22T07:15:45;34.35;;;17.88;;
59052;SDS011;44843;44.728;10.396;2022-10-22T07:18:16;34.42;;;16.23;;
59052;SDS011;44843;44.728;10.396;2022-10-22T07:20:41;33.67;;;18.58;;
59052;SDS011;44843;44.728;10.396;2022-10-22T07:23:07;32.00;;;17.15;;
59052;SDS011;44843;44.728;10.396;2022-10-22T07:25:32;30.25;;;16.83;;
59052;SDS011;44843;44.728;10.396;2022-10-22T07:27:57;33.95;;;17.17;;
59052;SDS011;44843;44.728;10.396;2022-10-22T07:30:23;32.50;;;17.92;;
59052;SDS011;44843;44.728;10.396;2022-10-22T07:32:48;29.38;;;16.27;;
59052;SDS011;44843;44.728;10.396;2022-10-22T07:35:13;28.85;;;15.82;;
59052;SDS011;44843;44.728;10.396;2022-10-22T07:37:39;29.80;;;16.70;;
59052;SDS011;44843;44.728;10.396;2022-10-22T07:40:04;31.35;;;15.18;;
59052;SDS011;44843;44.728;10.396;2022-10-22T07:42:30;24.48;;;14.07;;
59052;SDS011;44843;44.728;10.396;2022-10-22T07:44:56;23.08;;;14.57;;
59052;SDS011;44843;44.728;10.396;2022-10-22T07:47:21;24.40;;;13.95;;
59052;SDS011;44843;44.728;10.396;2022-10-22T07:49:46;23.45;;;14.82;;
59052;SDS011;44843;44.728;10.396;2022-10-22T07:52:12;24.48;;;13.30;;
59052;SDS011;44843;44.728;10.396;2022-10-22T07:54:37;22.88;;;13.55;;
59052;SDS011;44843;44.728;10.396;2022-10-22T07:57:02;26.58;;;14.57;;
59052;SDS011;44843;44.728;10.396;2022-10-22T07:59:28;24.95;;;14.68;;
59052;SDS011;44843;44.728;10.396;2022-10-22T08:01:53;22.60;;;13.48;;
59052;SDS011;44843;44.728;10.396;2022-10-22T08:04:18;34.53;;;14.57;;
59052;SDS011;44843;44.728;10.396;2022-10-22T08:06:44;16.33;;;10.38;;
59052;SDS011;44843;44.728;10.396;2022-10-22T08:09:09;16.98;;;8.38;;
59052;SDS011;44843;44.728;10.396;2022-10-22T08:11:35;15.02;;;7.95;;
59052;SDS011;44843;44.728;10.396;2022-10-22T08:14:00;14.77;;;6.30;;
59052;SDS011;44843;44.728;10.396;2022-10-22T08:16:26;9.27;;;5.55;;
59052;SDS011;44843;44.728;10.396;2022-10-22T08:18:51;26.15;;;12.63;;
59052;SDS011;44843;44.728;10.396;2022-10-22T08:21:16;25.52;;;12.20;;
59052;SDS011;44843;44.728;10.396;2022-10-22T08:23:42;24.20;;;12.80;;
59052;SDS011;44843;44.728;10.396;2022-10-22T08:26:08;28.42;;;14.65;;
59052;SDS011;44843;44.728;10.396;2022-10-22T08:28:34;31.35;;;15.43;;
59052;SDS011;44843;44.728;10.396;2022-10-22T08:31:04;28.23;;;15.57;;
59052;SDS011;44843;44.728;10.396;2022-10-22T08:33:31;30.52;;;16.50;;
59052;SDS011;44843;44.728;10.396;2022-10-22T08:35:57;32.22;;;17.08;;
59052;SDS011;44843;44.728;10.396;2022-10-22T08:38:22;29.52;;;16.65;;
59052;SDS011;44843;44.728;10.396;2022-10-22T08:40:50;27.40;;;17.70;;
59052;SDS011;44843;44.728;10.396;2022-10-22T08:43:28;32.65;;;18.30;;
59052;SDS011;44843;44.728;10.396;2022-10-22T08:48:58;32.83;;;17.63;;
59052;SDS011;44843;44.728;10.396;2022-10-22T08:51:26;32.45;;;19.40;;
59052;SDS011;44843;44.728;10.396;2022-10-22T08:56:43;36.45;;;19.63;;
59052;SDS011;44843;44.728;10.396;2022-10-22T08:59:35;35.58;;;20.83;;
59052;SDS011;44843;44.728;10.396;2022-10-22T09:02:07;34.90;;;21.23;;
59052;SDS011;44843;44.728;10.396;2022-10-22T09:04:48;35.45;;;20.67;;
59052;SDS011;44843;44.728;10.396;2022-10-22T09:09:46;33.58;;;19.83;;
59052;SDS011;44843;44.728;10.396;2022-10-22T09:12:16;40.42;;;21.77;;
59052;SDS011;44843;44.728;10.396;2022-10-22T09:14:42;39.67;;;22.67;;
59052;SDS011;44843;44.728;10.396;2022-10-22T09:17:20;43.80;;;22.23;;
59052;SDS011;44843;44.728;10.396;2022-10-22T09:20:11;36.10;;;20.40;;
59052;SDS011;44843;44.728;10.396;2022-10-22T09:22:41;34.88;;;22.15;;
59052;SDS011;44843;44.728;10.396;2022-10-22T09:25:19;35.35;;;20.85;;
59052;SDS011;44843;44.728;10.396;2022-10-22T09:27:49;31.88;;;20.45;;
59052;SDS011;44843;44.728;10.396;2022-10-22T09:30:18;30.05;;;19.52;;
59052;SDS011;44843;44.728;10.396;2022-10-22T09:32:46;37.63;;;20.58;;
59052;SDS011;44843;44.728;10.396;2022-10-22T09:35:44;35.95;;;21.42;;
59052;SDS011;44843;44.728;10.396;2022-10-22T09:38:18;39.50;;;20.88;;
59052;SDS011;44843;44.728;10.396;2022-10-22T09:40:49;34.10;;;21.08;;
59052;SDS011;44843;44.728;10.396;2022-10-22T09:43:16;38.88;;;20.83;;
59052;SDS011;44843;44.728;10.396;2022-10-22T09:45:42;34.20;;;20.08;;
59052;SDS011;44843;44.728;10.396;2022-10-22T09:48:18;38.55;;;21.00;;
59052;SDS011;44843;44.728;10.396;2022-10-22T09:50:54;35.72;;;20.10;;
59052;SDS011;44843;44.728;10.396;2022-10-22T09:53:22;33.60;;;20.33;;
59052;SDS011;44843;44.728;10.396;2022-10-22T09:55:54;31.60;;;19.75;;
59052;SDS011;44843;44.728;10.396;2022-10-22T09:58:24;36.65;;;19.98;;
59052;SDS011;44843;44.728;10.396;2022-10-22T10:00:52;37.58;;;20.80;;
59052;SDS011;44843;44.728;10.396;2022-10-22T10:03:21;35.72;;;20.13;;
59052;SDS011;44843;44.728;10.396;2022-10-22T10:05:50;36.28;;;19.33;;
59052;SDS011;44843;44.728;10.396;2022-10-22T10:08:21;37.65;;;22.58;;
59052;SDS011;44843;44.728;10.396;2022-10-22T10:10:47;32.28;;;19.83;;
59052;SDS011;44843;44.728;10.396;2022-10-22T10:18:45;34.08;;;20.60;;
59052;SDS011;44843;44.728;10.396;2022-10-22T10:24:21;35.60;;;20.98;;
59052;SDS011;44843;44.728;10.396;2022-10-22T10:48:08;36.00;;;21.17;;
59052;SDS011;44843;44.728;10.396;2022-10-22T11:07:24;35.63;;;18.40;;
59052;SDS011;44843;44.728;10.396;2022-10-22T11:10:10;31.73;;;18.90;;
59052;SDS011;44843;44.728;10.396;2022-10-22T11:12:53;301.77;;;143.80;;
59052;SDS011;44843;44.728;10.396;2022-10-22T11:15:36;282.33;;;127.50;;
59052;SDS011;44843;44.728;10.396;2022-10-22T11:21:18;35.75;;;18.15;;
59052;SDS011;44843;44.728;10.396;2022-10-22T11:23:54;60.47;;;28.33;;
59052;SDS011;44843;44.728;10.396;2022-10-22T11:26:32;29.40;;;15.00;;
59052;SDS011;44843;44.728;10.396;2022-10-22T11:29:00;31.27;;;16.48;;
59052;SDS011;44843;44.728;10.396;2022-10-22T11:31:29;28.45;;;14.98;;
59052;SDS011;44843;44.728;10.396;2022-10-22T11:34:12;34.03;;;16.52;;
59052;SDS011;44843;44.728;10.396;2022-10-22T11:36:48;30.58;;;15.88;;
59052;SDS011;44843;44.728;10.396;2022-10-22T11:39:35;26.35;;;14.80;;
59052;SDS011;44843;44.728;10.396;2022-10-22T11:42:18;38.05;;;15.43;;
59052;SDS011;44843;44.728;10.396;2022-10-22T11:44:46;29.67;;;15.90;;
59052;SDS011;44843;44.728;10.396;2022-10-22T11:47:32;31.20;;;15.65;;
59052;SDS011;44843;44.728;10.396;2022-10-22T11:52:40;27.88;;;14.02;;
59052;SDS011;44843;44.728;10.396;2022-10-22T11:55:28;29.80;;;14.68;;
59052;SDS011;44843;44.728;10.396;2022-10-22T11:58:00;28.77;;;14.68;;
59052;SDS011;44843;44.728;10.396;2022-10-22T12:03:50;25.85;;;14.57;;
59052;SDS011;44843;44.728;10.396;2022-10-22T12:14:20;25.90;;;15.40;;
59052;SDS011;44843;44.728;10.396;2022-10-22T12:24:54;33.00;;;17.05;;
59052;SDS011;44843;44.728;10.396;2022-10-22T12:27:33;29.50;;;16.35;;
59052;SDS011;44843;44.728;10.396;2022-10-22T12:30:00;30.60;;;17.25;;
59052;SDS011;44843;44.728;10.396;2022-10-22T12:32:36;31.83;;;17.02;;
59052;SDS011;44843;44.728;10.396;2022-10-22T12:38:15;27.75;;;14.85;;
59052;SDS011;44843;44.728;10.396;2022-10-22T12:40:46;33.85;;;17.23;;
59052;SDS011;44843;44.728;10.396;2022-10-22T12:43:16;29.25;;;16.40;;
59052;SDS011;44843;44.728;10.396;2022-10-22T12:45:50;26.95;;;15.93;;
59052;SDS011;44843;44.728;10.396;2022-10-22T12:48:26;28.33;;;17.00;;
59052;SDS011;44843;44.728;10.396;2022-10-22T12:50:55;31.02;;;16.23;;
59052;SDS011;44843;44.728;10.396;2022-10-22T12:53:36;31.48;;;17.48;;
59052;SDS011;44843;44.728;10.396;2022-10-22T12:56:30;33.22;;;15.18;;
59052;SDS011;44843;44.728;10.396;2022-10-22T12:59:02;30.08;;;14.98;;
59052;SDS011;44843;44.728;10.396;2022-10-22T13:01:35;27.48;;;14.02;;
59052;SDS011;44843;44.728;10.396;2022-10-22T13:04:14;31.73;;;15.70;;
59052;SDS011;44843;44.728;10.396;2022-10-22T13:06:51;26.77;;;14.50;;
59052;SDS011;44843;44.728;10.396;2022-10-22T13:09:35;29.73;;;14.55;;
59052;SDS011;44843;44.728;10.396;2022-10-22T13:12:08;28.58;;;15.35;;
59052;SDS011;44843;44.728;10.396;2022-10-22T13:14:38;32.03;;;15.98;;
59052;SDS011;44843;44.728;10.396;2022-10-22T13:17:14;26.63;;;14.90;;
59052;SDS011;44843;44.728;10.396;2022-10-22T13:19:59;32.97;;;15.00;;
59052;SDS011;44843;44.728;10.396;2022-10-22T13:22:33;34.00;;;16.90;;
59052;SDS011;44843;44.728;10.396;2022-10-22T13:27:44;34.58;;;16.83;;
59052;SDS011;44843;44.728;10.396;2022-10-22T13:30:22;31.70;;;15.82;;
59052;SDS011;44843;44.728;10.396;2022-10-22T13:32:51;30.05;;;15.68;;
59052;SDS011;44843;44.728;10.396;2022-10-22T13:35:19;30.40;;;17.25;;
59052;SDS011;44843;44.728;10.396;2022-10-22T13:37:48;34.67;;;16.65;;
59052;SDS011;44843;44.728;10.396;2022-10-22T13:40:13;34.67;;;15.95;;
59052;SDS011;44843;44.728;10.396;2022-10-22T13:42:39;34.83;;;16.33;;
59052;SDS011;44843;44.728;10.396;2022-10-22T13:45:05;28.33;;;16.17;;
59052;SDS011;44843;44.728;10.396;2022-10-22T13:47:30;25.27;;;14.38;;
59052;SDS011;44843;44.728;10.396;2022-10-22T13:49:57;31.58;;;16.10;;
59052;SDS011;44843;44.728;10.396;2022-10-22T13:52:39;31.77;;;16.45;;
59052;SDS011;44843;44.728;10.396;2022-10-22T13:57:43;33.70;;;15.75;;
59052;SDS011;44843;44.728;10.396;2022-10-22T14:00:13;32.90;;;16.83;;
59052;SDS011;44843;44.728;10.396;2022-10-22T14:02:41;30.33;;;16.75;;
59052;SDS011;44843;44.728;10.396;2022-10-22T14:05:07;32.70;;;17.23;;
59052;SDS011;44843;44.728;10.396;2022-10-22T14:07:35;31.42;;;16.02;;
59052;SDS011;44843;44.728;10.396;2022-10-22T14:10:02;31.30;;;15.70;;
59052;SDS011;44843;44.728;10.396;2022-10-22T14:12:30;30.63;;;16.67;;
59052;SDS011;44843;44.728;10.396;2022-10-22T14:14:55;26.50;;;15.73;;
59052;SDS011;44843;44.728;10.396;2022-10-22T14:17:21;32.22;;;16.13;;
59052;SDS011;44843;44.728;10.396;2022-10-22T14:19:46;31.60;;;17.00;;
59052;SDS011;44843;44.728;10.396;2022-10-22T14:22:14;34.40;;;18.30;;
59052;SDS011;44843;44.728;10.396;2022-10-22T14:24:44;25.95;;;15.75;;
59052;SDS011;44843;44.728;10.396;2022-10-22T14:27:11;34.47;;;18.05;;
59052;SDS011;44843;44.728;10.396;2022-10-22T14:29:38;33.28;;;17.58;;
59052;SDS011;44843;44.728;10.396;2022-10-22T14:32:17;34.65;;;18.45;;
59052;SDS011;44843;44.728;10.396;2022-10-22T14:34:46;33.72;;;16.85;;
59052;SDS011;44843;44.728;10.396;2022-10-22T14:37:16;31.23;;;17.63;;
59052;SDS011;44843;44.728;10.396;2022-10-22T14:39:43;36.22;;;18.63;;
59052;SDS011;44843;44.728;10.396;2022-10-22T14:42:11;29.63;;;17.65;;
59052;SDS011;44843;44.728;10.396;2022-10-22T14:54:19;180.10;;;64.57;;
59052;SDS011;44843;44.728;10.396;2022-10-22T14:56:45;204.23;;;59.30;;
59052;SDS011;44843;44.728;10.396;2022-10-22T14:59:10;194.00;;;49.67;;
59052;SDS011;44843;44.728;10.396;2022-10-22T15:01:36;147.65;;;39.10;;
59052;SDS011;44843;44.728;10.396;2022-10-22T15:04:03;210.13;;;51.70;;
59052;SDS011;44843;44.728;10.396;2022-10-22T15:06:28;225.43;;;61.42;;
59052;SDS011;44843;44.728;10.396;2022-10-22T15:08:54;453.63;;;98.45;;
59052;SDS011;44843;44.728;10.396;2022-10-22T15:11:19;359.15;;;86.88;;
59052;SDS011;44843;44.728;10.396;2022-10-22T15:13:46;278.15;;;66.32;;
59052;SDS011;44843;44.728;10.396;2022-10-22T15:16:12;206.57;;;54.97;;
59052;SDS011;44843;44.728;10.396;2022-10-22T15:18:40;305.42;;;71.55;;
59052;SDS011;44843;44.728;10.396;2022-10-22T15:21:06;474.15;;;160.15;;
59052;SDS011;44843;44.728;10.396;2022-10-22T15:23:38;540.42;;;169.45;;
59052;SDS011;44843;44.728;10.396;2022-10-22T15:26:07;349.58;;;107.30;;
59052;SDS011;44843;44.728;10.396;2022-10-22T15:28:34;399.27;;;121.55;;
59052;SDS011;44843;44.728;10.396;2022-10-22T15:31:01;317.13;;;91.95;;
59052;SDS011;44843;44.728;10.396;2022-10-22T15:33:27;224.82;;;65.15;;
59052;SDS011;44843;44.728;10.396;2022-10-22T15:35:53;164.02;;;50.25;;
59052;SDS011;44843;44.728;10.396;2022-10-22T15:38:20;152.20;;;45.85;;
59052;SDS011;44843;44.728;10.396;2022-10-22T15:40:46;98.40;;;40.00;;
59052;SDS011;44843;44.728;10.396;2022-10-22T15:43:12;67.13;;;31.90;;
59052;SDS011;44843;44.728;10.396;2022-10-22T15:45:38;52.92;;;26.35;;
59052;SDS011;44843;44.728;10.396;2022-10-22T15:48:04;51.22;;;25.40;;
59052;SDS011;44843;44.728;10.396;2022-10-22T15:50:29;47.03;;;25.20;;
59052;SDS011;44843;44.728;10.396;2022-10-22T15:52:55;54.65;;;27.63;;
59052;SDS011;44843;44.728;10.396;2022-10-22T15:55:21;50.47;;;27.10;;
59052;SDS011;44843;44.728;10.396;2022-10-22T15:57:46;45.95;;;27.05;;
59052;SDS011;44843;44.728;10.396;2022-10-22T16:00:18;45.40;;;26.42;;
59052;SDS011;44843;44.728;10.396;2022-10-22T16:02:44;50.65;;;28.33;;
59052;SDS011;44843;44.728;10.396;2022-10-22T16:05:10;52.10;;;26.38;;
59052;SDS011;44843;44.728;10.396;2022-10-22T16:07:35;43.97;;;26.33;;
59052;SDS011;44843;44.728;10.396;2022-10-22T16:10:00;48.55;;;25.75;;
59052;SDS011;44843;44.728;10.396;2022-10-22T16:12:26;45.53;;;26.00;;
59052;SDS011;44843;44.728;10.396;2022-10-22T16:14:51;48.50;;;25.55;;
59052;SDS011;44843;44.728;10.396;2022-10-22T16:17:17;43.95;;;25.27;;
59052;SDS011;44843;44.728;10.396;2022-10-22T16:19:42;43.30;;;26.00;;
59052;SDS011;44843;44.728;10.396;2022-10-22T16:22:08;42.22;;;24.67;;
59052;SDS011;44843;44.728;10.396;2022-10-22T16:24:36;53.60;;;26.23;;
59052;SDS011;44843;44.728;10.396;2022-10-22T16:27:05;52.65;;;28.52;;
59052;SDS011;44843;44.728;10.396;2022-10-22T16:29:31;55.47;;;25.55;;